Jeppesen Maersk — OWTW2 — position and weather

sailwx.info

Track history (hours):
 
Tides and Currents Weather Stations Pressure Air Temp Water Temp Dewpoint Dewpoint Depression Visibility Wind Speed Wind Dir Waves Ship Positions

Jeppesen Maersk

Last reported at 2015-Jan-28 08:15 UTC. Time now 2015-Jan-31 05:30 UTC.
Position N 01°16' E 104°17'.

Type: Ship (hazmat cat A). MMSI: 219953000.

Date/timePositionNaut miles runAvg speedWind from/ knotsBaromVisibWave heightAir tempDewpointWater temp
2015-Jan-28 08:15N 01°16' E 104°17'811.5
2015-Jan-28 07:32N 01°15' E 104°09'1212.1
2015-Jan-28 06:33N 01°13' E 103°57'9 8.5
2015-Jan-28 05:30N 01°12' E 103°48'6 5.7
2015-Jan-28 04:32N 01°17' E 103°45'0 0.0
2015-Jan-28 03:32N 01°17' E 103°45'0 0.0
2015-Jan-28 02:17N 01°17' E 103°45'0 0.0
2015-Jan-28 01:32N 01°17' E 103°45'0 0.0
2015-Jan-28 00:26N 01°17' E 103°45'0 0.0
2015-Jan-27 23:32N 01°17' E 103°45'0 0.0
2015-Jan-27 22:32N 01°17' E 103°45'0 0.0
2015-Jan-27 21:32N 01°17' E 103°45'0 0.0
2015-Jan-27 20:32N 01°17' E 103°45'0 0.0
2015-Jan-27 19:32N 01°17' E 103°45'0 0.0
2015-Jan-27 18:32N 01°17' E 103°45'0 0.0
2015-Jan-27 17:32N 01°17' E 103°45'0 0.0
2015-Jan-27 16:32N 01°17' E 103°45'0 0.0
2015-Jan-27 15:32N 01°17' E 103°45'0 0.0
2015-Jan-27 14:26N 01°17' E 103°45'0 0.0
2015-Jan-27 13:32N 01°17' E 103°45'0 0.0
2015-Jan-27 12:32N 01°17' E 103°45'0 0.3
2015-Jan-27 11:29N 01°17' E 103°45'3 3.5
2015-Jan-27 10:33N 01°14' E 103°43'64 1.2
2015-Jan-25 06:33N 01°40' E 102°44'1312.9
2015-Jan-25 05:32N 01°45' E 102°32'1413.1
2015-Jan-25 04:30N 01°51' E 102°20'  
2015-Jan-21 11:06N 02°03' E 102°10'812.7
2015-Jan-21 10:26N 01°57' E 102°17'1213.4
2015-Jan-21 09:33N 01°52' E 102°28'1413.9
2015-Jan-21 08:32N 01°46' E 102°40'67 1.8
2015-Jan-19 18:17N 01°12' E 103°38'7 9.7
2015-Jan-19 17:33N 01°16' E 103°44'2 2.1
2015-Jan-19 16:33N 01°17' E 103°46'0 0.0
2015-Jan-19 15:32N 01°17' E 103°46'0 0.0
2015-Jan-19 14:32N 01°17' E 103°46'0 0.0
2015-Jan-19 13:29N 01°17' E 103°46'0 0.0
2015-Jan-19 12:05N 01°17' E 103°46'0 0.0
2015-Jan-19 11:23N 01°17' E 103°46'0 0.0
2015-Jan-19 10:23N 01°17' E 103°46'0 0.0
2015-Jan-19 09:23N 01°17' E 103°46'0 0.0
2015-Jan-19 08:29N 01°17' E 103°46'0 0.0
2015-Jan-19 07:26N 01°17' E 103°46'0 0.0
2015-Jan-19 06:29N 01°17' E 103°46'0 0.0
2015-Jan-19 05:32N 01°17' E 103°46'0 0.0
2015-Jan-19 04:29N 01°17' E 103°46'1 1.6
2015-Jan-19 03:33N 01°16' E 103°46'  
Track history (hours):
 
Tides and Currents Weather Stations Pressure Air Temp Water Temp Dewpoint Dewpoint Depression Visibility Wind Speed Wind Dir Waves Ship Positions

Jeppesen Maersk

Last reported at 2015-Jan-28 08:15 UTC. Time now 2015-Jan-31 05:30 UTC.
Position N 01°16' E 104°17'.

Type: Ship (hazmat cat A). MMSI: 219953000.

Date/timePositionNaut miles runAvg speedWind from/ knotsBaromVisibWave heightAir tempDewpointWater temp
2015-Jan-28 08:15N 01°16' E 104°17'811.5
2015-Jan-28 07:32N 01°15' E 104°09'1212.1
2015-Jan-28 06:33N 01°13' E 103°57'9 8.5
2015-Jan-28 05:30N 01°12' E 103°48'6 5.7
2015-Jan-28 04:32N 01°17' E 103°45'0 0.0
2015-Jan-28 03:32N 01°17' E 103°45'0 0.0
2015-Jan-28 02:17N 01°17' E 103°45'0 0.0
2015-Jan-28 01:32N 01°17' E 103°45'0 0.0
2015-Jan-28 00:26N 01°17' E 103°45'0 0.0
2015-Jan-27 23:32N 01°17' E 103°45'0 0.0
2015-Jan-27 22:32N 01°17' E 103°45'0 0.0
2015-Jan-27 21:32N 01°17' E 103°45'0 0.0
2015-Jan-27 20:32N 01°17' E 103°45'0 0.0
2015-Jan-27 19:32N 01°17' E 103°45'0 0.0
2015-Jan-27 18:32N 01°17' E 103°45'0 0.0
2015-Jan-27 17:32N 01°17' E 103°45'0 0.0
2015-Jan-27 16:32N 01°17' E 103°45'0 0.0
2015-Jan-27 15:32N 01°17' E 103°45'0 0.0
2015-Jan-27 14:26N 01°17' E 103°45'0 0.0
2015-Jan-27 13:32N 01°17' E 103°45'0 0.0
2015-Jan-27 12:32N 01°17' E 103°45'0 0.3
2015-Jan-27 11:29N 01°17' E 103°45'3 3.5
2015-Jan-27 10:33N 01°14' E 103°43'64 1.2
2015-Jan-25 06:33N 01°40' E 102°44'1312.9
2015-Jan-25 05:32N 01°45' E 102°32'1413.1
2015-Jan-25 04:30N 01°51' E 102°20'  
2015-Jan-21 11:06N 02°03' E 102°10'812.7
2015-Jan-21 10:26N 01°57' E 102°17'1213.4
2015-Jan-21 09:33N 01°52' E 102°28'1413.9
2015-Jan-21 08:32N 01°46' E 102°40'67 1.8
2015-Jan-19 18:17N 01°12' E 103°38'7 9.7
2015-Jan-19 17:33N 01°16' E 103°44'2 2.1
2015-Jan-19 16:33N 01°17' E 103°46'0 0.0
2015-Jan-19 15:32N 01°17' E 103°46'0 0.0
2015-Jan-19 14:32N 01°17' E 103°46'0 0.0
2015-Jan-19 13:29N 01°17' E 103°46'0 0.0
2015-Jan-19 12:05N 01°17' E 103°46'0 0.0
2015-Jan-19 11:23N 01°17' E 103°46'0 0.0
2015-Jan-19 10:23N 01°17' E 103°46'0 0.0
2015-Jan-19 09:23N 01°17' E 103°46'0 0.0
2015-Jan-19 08:29N 01°17' E 103°46'0 0.0
2015-Jan-19 07:26N 01°17' E 103°46'0 0.0
2015-Jan-19 06:29N 01°17' E 103°46'0 0.0
2015-Jan-19 05:32N 01°17' E 103°46'0 0.0
2015-Jan-19 04:29N 01°17' E 103°46'1 1.6
2015-Jan-19 03:33N 01°16' E 103°46'  

Dump ship's entire track history